Time;durP1;ratioP1;P1;durP2;ratioP2;P2;SDS_P1;SDS_P2;PMS_P1;PMS_P2;Temp;Humidity;BMP_temperature;BMP_pressure;BME280_temperature;BME280_humidity;BME280_pressure;Samples;Min_cycle;Max_cycle;Signal;HPM_P1;HPM_P2
2021/05/07 00:01:05;;;;;;;6.28;1.70;;;;;;;3.69;85.86;100602.72;5018267;28;20075;-78
2021/05/07 00:03:31;;;;;;;7.32;1.90;;;;;;;3.70;86.81;100588.78;5007483;28;20045;-77
2021/05/07 00:05:57;;;;;;;8.00;1.60;;;;;;;3.73;87.23;100587.78;5021651;28;20046;-77
2021/05/07 00:08:29;;;;;;;4.65;1.75;;;;;;;3.69;87.35;100579.38;5008451;28;20049;-79
2021/05/07 00:10:56;;;;;;;7.88;1.70;;;;;;;3.73;87.15;100585.19;5024586;28;20052;-77
2021/05/07 00:13:22;;;;;;;7.60;1.60;;;;;;;3.69;87.66;100576.78;4973872;28;20144;-78
2021/05/07 00:15:48;;;;;;;7.78;2.00;;;;;;;3.70;88.06;100593.97;4998066;28;20100;-78
2021/05/07 00:18:15;;;;;;;9.15;1.50;;;;;;;3.66;88.30;100583.94;4979328;28;20037;-78
2021/05/07 00:20:40;;;;;;;7.07;1.80;;;;;;;3.67;87.81;100578.66;5004473;28;20054;-77
2021/05/07 00:23:06;;;;;;;7.35;1.92;;;;;;;3.65;88.03;100587.44;4997045;28;20148;-77
2021/05/07 00:25:31;;;;;;;7.40;1.73;;;;;;;3.63;88.12;100586.72;5021891;28;20888;-78
2021/05/07 00:28:12;;;;;;;9.85;1.88;;;;;;;3.50;88.38;100586.72;4993289;28;20049;-77
2021/05/07 00:30:38;;;;;;;11.45;1.60;;;;;;;3.40;88.40;100593.50;4990630;28;20075;-78
2021/05/07 00:33:08;;;;;;;11.57;1.90;;;;;;;3.36;88.64;100597.22;5013823;28;20072;-79
2021/05/07 00:35:34;;;;;;;8.23;1.90;;;;;;;3.33;88.12;100589.66;5015160;28;20136;-80
2021/05/07 00:38:00;;;;;;;6.32;1.90;;;;;;;3.34;88.78;100588.72;5006106;28;20037;-78
2021/05/07 00:40:26;;;;;;;8.75;2.40;;;;;;;3.32;88.80;100583.66;5008993;28;20133;-79
2021/05/07 00:42:54;;;;;;;11.82;1.90;;;;;;;3.32;87.74;100599.19;5005134;28;20123;-78
2021/05/07 00:45:21;;;;;;;9.75;1.83;;;;;;;3.32;88.21;100599.19;5009731;28;20056;-79
2021/05/07 00:48:04;;;;;;;7.82;2.10;;;;;;;3.33;88.97;100593.06;5011943;28;20038;-79
2021/05/07 00:50:32;;;;;;;6.07;2.15;;;;;;;3.37;88.79;100597.13;5005836;28;20064;-78
2021/05/07 00:52:59;;;;;;;10.90;2.08;;;;;;;3.34;88.54;100589.56;5007013;28;20788;-76
2021/05/07 00:55:27;;;;;;;9.75;1.88;;;;;;;3.43;87.95;100601.06;5003396;28;20121;-77
2021/05/07 00:57:53;;;;;;;4.65;1.80;;;;;;;3.48;88.42;100604.16;5006757;28;20136;-78
2021/05/07 01:00:20;;;;;;;5.30;1.85;;;;;;;3.54;88.20;100598.56;4985859;28;20034;-76
2021/05/07 01:02:45;;;;;;;7.28;1.80;;;;;;;3.57;88.26;100597.53;4992353;28;20137;-76
2021/05/07 01:05:12;;;;;;;10.25;2.03;;;;;;;3.57;87.82;100593.16;5009451;28;20145;-76
2021/05/07 01:07:38;;;;;;;11.02;1.98;;;;;;;3.59;86.97;100604.25;5004873;28;20045;-76
2021/05/07 01:10:05;;;;;;;6.20;1.73;;;;;;;3.63;87.08;100602.28;5002167;28;20033;-76
2021/05/07 01:12:33;;;;;;;7.88;1.88;;;;;;;3.59;86.79;100593.88;5010244;28;20121;-77
2021/05/07 01:15:09;;;;;;;10.48;2.10;;;;;;;3.60;87.37;100594.72;5027076;28;20083;-77
2021/05/07 01:17:42;;;;;;;11.75;1.83;;;;;;;3.59;86.99;100590.47;5026067;28;20563;-77
2021/05/07 01:20:12;;;;;;;10.88;1.83;;;;;;;3.57;86.06;100589.75;4976001;28;20049;-78
2021/05/07 01:22:42;;;;;;;8.27;1.98;;;;;;;3.57;84.77;100582.78;4992138;28;20042;-79
2021/05/07 01:25:10;;;;;;;6.68;1.60;;;;;;;3.58;85.65;100574.09;4991413;28;20037;-79
2021/05/07 01:27:46;;;;;;;11.48;1.70;;;;;;;3.65;85.85;100590.03;4992610;28;20124;-77
2021/05/07 01:30:17;;;;;;;6.50;1.95;;;;;;;3.67;86.34;100575.19;4981844;28;20044;-77
2021/05/07 01:32:44;;;;;;;5.13;1.50;;;;;;;3.71;87.19;100584.44;4978677;28;20041;-77
2021/05/07 01:35:15;;;;;;;4.97;1.73;;;;;;;3.73;87.49;100573.94;5025184;28;20608;-77
2021/05/07 01:37:46;;;;;;;11.48;2.30;;;;;;;3.74;87.31;100579.03;5010382;28;20194;-77
2021/05/07 01:40:19;;;;;;;5.93;1.55;;;;;;;3.75;86.57;100588.50;5005469;28;20038;-78
2021/05/07 01:42:46;;;;;;;7.00;2.30;;;;;;;3.74;86.44;100581.63;5023528;28;20594;-76
2021/05/07 01:45:16;;;;;;;10.63;1.50;;;;;;;3.77;86.35;100588.38;4992281;28;20050;-77
2021/05/07 01:47:43;;;;;;;7.07;1.60;;;;;;;3.75;85.44;100592.81;4996632;28;20042;-77
2021/05/07 01:50:11;;;;;;;11.50;2.20;;;;;;;3.70;85.22;100590.56;5011253;28;20037;-77
2021/05/07 01:52:38;;;;;;;8.05;1.77;;;;;;;3.67;84.67;100593.38;5029835;28;20041;-76
2021/05/07 01:55:06;;;;;;;7.95;1.60;;;;;;;3.66;84.48;100592.53;5025246;28;20038;-76
2021/05/07 01:57:34;;;;;;;6.80;1.60;;;;;;;3.69;83.37;100594.09;4988699;28;20037;-77
2021/05/07 02:00:00;;;;;;;9.75;1.55;;;;;;;3.66;82.74;100595.13;5018426;28;20134;-76
2021/05/07 02:02:25;;;;;;;8.50;1.85;;;;;;;3.70;82.88;100600.94;5016377;28;20480;-76
2021/05/07 02:04:51;;;;;;;6.28;1.60;;;;;;;3.69;82.82;100600.13;5010772;28;20100;-76
2021/05/07 02:07:18;;;;;;;7.55;1.83;;;;;;;3.69;83.18;100601.88;5033729;28;20053;-78
2021/05/07 02:09:44;;;;;;;7.82;1.90;;;;;;;3.75;84.20;100591.09;5015691;28;20128;-77
2021/05/07 02:12:10;;;;;;;5.88;1.65;;;;;;;3.72;84.99;100595.66;5016332;28;20038;-81
2021/05/07 02:14:36;;;;;;;7.53;1.40;;;;;;;3.79;85.18;100602.91;5035323;28;20403;-79
2021/05/07 02:17:03;;;;;;;4.18;1.42;;;;;;;3.84;87.12;100606.03;5010672;28;20144;-78
2021/05/07 02:19:28;;;;;;;4.72;1.70;;;;;;;3.86;87.03;100604.16;5013095;28;20042;-78
2021/05/07 02:21:54;;;;;;;9.85;1.90;;;;;;;3.89;87.26;100603.91;5002587;28;20037;-77
2021/05/07 02:24:20;;;;;;;6.35;1.80;;;;;;;3.98;86.82;100609.41;5011545;28;20045;-77
2021/05/07 02:26:45;;;;;;;8.85;2.00;;;;;;;4.00;87.43;100599.75;5001925;28;20045;-77
2021/05/07 02:29:11;;;;;;;9.25;2.10;;;;;;;3.99;87.57;100605.88;5013164;28;20065;-77
2021/05/07 02:31:37;;;;;;;8.02;1.98;;;;;;;3.95;88.82;100615.63;4983530;28;20136;-78
2021/05/07 02:34:02;;;;;;;8.88;2.20;;;;;;;3.92;88.34;100620.19;5015878;28;20052;-78
2021/05/07 02:36:28;;;;;;;6.43;2.10;;;;;;;3.87;87.87;100623.13;5011153;28;20364;-77
2021/05/07 02:38:53;;;;;;;7.70;2.20;;;;;;;3.91;88.59;100621.97;5014146;28;20057;-77
2021/05/07 02:41:22;;;;;;;4.20;2.05;;;;;;;3.94;89.18;100620.94;5028093;28;20042;-76
2021/05/07 02:43:48;;;;;;;7.30;2.28;;;;;;;4.01;88.38;100623.00;5016287;28;20053;-79
2021/05/07 02:46:21;;;;;;;7.55;2.20;;;;;;;4.03;88.52;100623.72;5016106;28;20029;-78
2021/05/07 02:48:48;;;;;;;14.23;2.53;;;;;;;4.06;87.92;100617.50;5018923;28;20133;-79
2021/05/07 02:51:14;;;;;;;10.82;2.78;;;;;;;4.12;88.92;100621.41;4992872;28;20049;-80
2021/05/07 02:53:40;;;;;;;10.48;2.47;;;;;;;4.13;88.51;100623.09;4996468;28;20051;-79
2021/05/07 02:56:06;;;;;;;8.98;2.83;;;;;;;4.14;88.70;100628.16;5027732;28;20368;-80
2021/05/07 02:58:33;;;;;;;8.35;2.45;;;;;;;4.10;88.66;100629.31;5001371;28;20437;-79
2021/05/07 03:00:58;;;;;;;6.80;2.80;;;;;;;4.12;89.35;100637.00;5030717;28;20033;-77
2021/05/07 03:03:24;;;;;;;11.10;3.10;;;;;;;4.10;89.86;100631.91;5003939;28;20076;-78
2021/05/07 03:05:49;;;;;;;8.43;3.25;;;;;;;4.07;89.93;100629.53;5026454;28;20102;-77
2021/05/07 03:08:24;;;;;;;8.90;2.63;;;;;;;4.05;90.46;100631.38;4989849;28;20863;-77
2021/05/07 03:10:50;;;;;;;7.50;2.90;;;;;;;4.03;89.60;100630.66;5010393;28;20434;-78
2021/05/07 03:13:16;;;;;;;12.23;3.25;;;;;;;4.00;90.66;100630.91;5028406;28;20038;-78
2021/05/07 03:15:42;;;;;;;7.70;3.08;;;;;;;3.97;90.74;100638.88;4996257;28;20564;-78
2021/05/07 03:18:21;;;;;;;9.25;2.70;;;;;;;3.91;90.83;100640.16;5010154;28;20059;-78
2021/05/07 03:20:48;;;;;;;9.15;2.72;;;;;;;3.86;90.64;100644.81;4991166;28;20045;-76
2021/05/07 03:23:14;;;;;;;12.80;2.90;;;;;;;3.85;91.54;100656.97;4991305;28;20139;-79
2021/05/07 03:25:40;;;;;;;8.73;2.80;;;;;;;3.90;91.88;100656.66;4989941;28;20034;-78
2021/05/07 03:28:06;;;;;;;9.93;3.33;;;;;;;3.86;91.86;100656.03;5013612;28;20179;-78
2021/05/07 03:30:33;;;;;;;12.18;3.25;;;;;;;3.84;92.04;100657.06;5006500;28;20040;-78
2021/05/07 03:32:59;;;;;;;10.32;2.97;;;;;;;3.80;92.57;100664.22;5017440;28;20073;-79
2021/05/07 03:35:25;;;;;;;12.38;2.97;;;;;;;3.82;91.69;100670.13;5017903;28;20395;-77
2021/05/07 03:37:51;;;;;;;9.10;2.83;;;;;;;3.77;91.39;100666.19;5013260;28;20037;-78
2021/05/07 03:40:17;;;;;;;7.95;2.63;;;;;;;3.82;91.79;100671.91;5020236;28;20107;-78
2021/05/07 03:42:44;;;;;;;10.95;2.72;;;;;;;3.84;91.57;100683.00;5025609;28;20156;-79
2021/05/07 03:45:11;;;;;;;8.60;2.50;;;;;;;3.88;91.52;100681.88;4996888;28;20037;-78
2021/05/07 03:47:36;;;;;;;7.07;2.70;;;;;;;3.84;90.69;100686.47;5030259;28;20620;-79
2021/05/07 03:50:03;;;;;;;7.10;1.92;;;;;;;3.89;88.83;100693.91;5008313;28;20160;-77
2021/05/07 03:52:29;;;;;;;5.70;1.85;;;;;;;3.94;88.42;100691.00;5008827;28;20075;-79
2021/05/07 03:54:54;;;;;;;6.88;1.75;;;;;;;3.92;88.64;100701.50;5027586;28;20768;-77
2021/05/07 03:57:20;;;;;;;6.78;1.50;;;;;;;3.98;88.60;100702.84;5027051;28;20072;-77
2021/05/07 03:59:46;;;;;;;7.10;2.00;;;;;;;3.96;89.92;100709.91;4992686;28;20460;-78
2021/05/07 04:02:11;;;;;;;6.85;1.92;;;;;;;3.93;89.22;100710.94;5008874;28;20044;-77
2021/05/07 04:04:38;;;;;;;7.45;2.03;;;;;;;3.89;90.20;100715.50;5011836;28;20049;-78
2021/05/07 04:07:04;;;;;;;6.97;2.17;;;;;;;3.79;90.89;100724.03;5024535;28;20115;-78
2021/05/07 04:09:34;;;;;;;5.07;2.00;;;;;;;3.80;91.46;100723.09;4993907;28;20064;-79
2021/05/07 04:12:12;;;;;;;4.22;1.85;;;;;;;3.67;92.55;100738.63;5011937;28;20050;-78
2021/05/07 04:14:38;;;;;;;11.10;2.60;;;;;;;3.63;93.13;100732.81;5012272;28;20072;-79
2021/05/07 04:17:03;;;;;;;9.05;2.20;;;;;;;3.59;93.45;100733.94;5009626;28;20125;-79
2021/05/07 04:19:29;;;;;;;9.00;2.33;;;;;;;3.46;94.32;100731.34;5009436;28;20046;-79
2021/05/07 04:21:55;;;;;;;8.75;2.03;;;;;;;3.47;94.51;100742.56;5029153;28;20048;-80
2021/05/07 04:24:20;;;;;;;12.32;2.40;;;;;;;3.45;94.48;100749.59;5020811;28;20045;-80
2021/05/07 04:26:46;;;;;;;7.32;2.30;;;;;;;3.42;94.64;100755.81;5015827;28;20088;-78
2021/05/07 04:29:11;;;;;;;8.85;2.22;;;;;;;3.37;94.99;100757.03;5026523;28;20050;-80
2021/05/07 04:31:37;;;;;;;7.93;2.40;;;;;;;3.31;95.57;100756.53;5013893;28;20042;-81
2021/05/07 04:34:05;;;;;;;6.80;2.38;;;;;;;3.31;95.50;100758.25;5018361;28;20049;-80
2021/05/07 04:36:31;;;;;;;8.68;2.30;;;;;;;3.34;95.25;100758.06;5018690;28;20044;-78
2021/05/07 04:38:57;;;;;;;13.68;2.83;;;;;;;3.34;95.38;100765.84;5011484;28;20049;-79
2021/05/07 04:41:23;;;;;;;4.75;1.85;;;;;;;3.35;95.33;100757.13;5009616;28;20050;-79
2021/05/07 04:43:48;;;;;;;10.30;2.38;;;;;;;3.36;95.63;100760.56;4998177;28;20582;-80
2021/05/07 04:46:14;;;;;;;9.60;2.50;;;;;;;3.40;95.87;100760.25;5021504;28;20048;-78
2021/05/07 04:48:40;;;;;;;8.27;2.47;;;;;;;3.45;95.60;100762.56;5026112;28;20058;-77
2021/05/07 04:51:05;;;;;;;7.80;2.38;;;;;;;3.44;95.04;100761.72;4998360;28;20131;-77
2021/05/07 04:53:31;;;;;;;5.38;2.60;;;;;;;3.46;95.44;100764.22;5024947;28;20123;-77
2021/05/07 04:55:56;;;;;;;10.68;2.67;;;;;;;3.51;94.55;100759.56;5027108;28;20412;-77
2021/05/07 04:58:22;;;;;;;10.73;3.00;;;;;;;3.52;94.65;100774.19;5017295;28;20044;-79
2021/05/07 05:00:47;;;;;;;14.65;2.70;;;;;;;3.47;95.33;100771.09;5007180;28;20087;-78
2021/05/07 05:03:13;;;;;;;7.72;2.22;;;;;;;3.47;95.32;100776.28;5023349;28;20057;-80
2021/05/07 05:05:38;;;;;;;9.02;2.38;;;;;;;3.49;95.47;100780.41;5022054;28;20069;-77
2021/05/07 05:08:04;;;;;;;6.47;2.42;;;;;;;3.53;95.47;100790.59;5021586;28;20038;-79
2021/05/07 05:10:29;;;;;;;7.20;2.47;;;;;;;3.53;95.69;100785.41;5030807;28;20119;-82
2021/05/07 05:12:55;;;;;;;6.65;2.10;;;;;;;3.61;96.25;100791.75;5030560;28;20117;-79
2021/05/07 05:15:20;;;;;;;7.88;2.08;;;;;;;3.64;96.01;100788.13;5027794;28;20042;-79
2021/05/07 05:17:54;;;;;;;6.38;2.38;;;;;;;3.66;95.46;100787.09;5024319;28;20037;-78
2021/05/07 05:20:19;;;;;;;7.22;2.80;;;;;;;3.64;95.52;100790.72;5028304;28;20053;-79
2021/05/07 05:22:46;;;;;;;5.55;2.20;;;;;;;3.66;95.06;100804.44;5031849;28;20108;-77
2021/05/07 05:25:12;;;;;;;13.27;3.10;;;;;;;3.68;95.33;100797.38;5009735;28;20088;-77
2021/05/07 05:27:37;;;;;;;11.90;2.85;;;;;;;3.67;94.93;100801.75;5009998;28;20584;-80
2021/05/07 05:30:04;;;;;;;9.55;3.13;;;;;;;3.69;96.15;100797.28;4995127;28;20132;-78
2021/05/07 05:32:31;;;;;;;9.05;3.20;;;;;;;3.76;96.21;100802.06;5009501;28;20075;-78
2021/05/07 05:34:57;;;;;;;8.25;2.63;;;;;;;3.99;95.73;100806.53;4992885;28;20037;-79
2021/05/07 05:37:24;;;;;;;9.43;4.45;;;;;;;4.15;94.75;100806.34;5012434;28;20420;-79
2021/05/07 05:39:49;;;;;;;11.55;3.50;;;;;;;4.24;94.55;100807.50;4991704;28;20515;-78
2021/05/07 05:42:15;;;;;;;10.65;3.58;;;;;;;4.32;94.24;100815.59;5012339;28;20088;-78
2021/05/07 05:44:40;;;;;;;9.27;3.53;;;;;;;4.32;93.73;100812.19;5019420;28;20053;-77
2021/05/07 05:47:06;;;;;;;6.57;3.28;;;;;;;4.29;93.74;100816.66;5020956;28;20747;-80
2021/05/07 05:49:31;;;;;;;14.75;3.17;;;;;;;4.27;93.44;100828.88;4991597;28;20103;-76
2021/05/07 05:51:57;;;;;;;11.98;3.33;;;;;;;4.23;93.34;100827.44;5011424;28;20538;-78
2021/05/07 05:54:22;;;;;;;12.65;3.65;;;;;;;4.22;93.19;100835.31;5011615;28;20064;-79
2021/05/07 05:56:48;;;;;;;7.28;2.92;;;;;;;4.16;94.51;100831.38;5026085;28;20647;-79
2021/05/07 05:59:13;;;;;;;6.68;2.65;;;;;;;4.19;93.97;100833.78;5007983;28;20042;-78
2021/05/07 06:01:39;;;;;;;10.30;2.80;;;;;;;4.25;94.70;100833.34;4996672;28;20038;-76
2021/05/07 06:04:05;;;;;;;8.25;2.30;;;;;;;4.27;93.06;100839.28;5004494;28;20045;-79
2021/05/07 06:06:30;;;;;;;7.50;2.28;;;;;;;4.36;92.30;100821.41;5032811;28;20045;-78
2021/05/07 06:08:56;;;;;;;5.97;2.15;;;;;;;4.43;92.75;100825.28;5015424;28;20049;-79
2021/05/07 06:11:21;;;;;;;7.15;2.40;;;;;;;4.55;92.66;100839.19;5030273;28;20080;-78
2021/05/07 06:13:47;;;;;;;6.53;2.20;;;;;;;4.61;91.72;100829.19;5011676;28;20045;-77
2021/05/07 06:16:12;;;;;;;5.65;1.90;;;;;;;4.70;90.05;100838.13;5026420;28;20268;-77
2021/05/07 06:18:38;;;;;;;8.13;2.10;;;;;;;4.64;90.53;100834.16;5006454;28;20135;-77
2021/05/07 06:21:04;;;;;;;8.10;2.50;;;;;;;4.61;91.10;100836.97;4996253;28;20088;-78
2021/05/07 06:23:30;;;;;;;6.53;2.15;;;;;;;4.70;90.07;100843.31;5014481;28;20041;-77
2021/05/07 06:25:55;;;;;;;7.45;2.40;;;;;;;4.76;90.33;100847.25;5013632;28;20060;-79
2021/05/07 06:28:21;;;;;;;4.55;2.78;;;;;;;4.76;89.39;100849.84;5032044;28;20434;-77
2021/05/07 06:30:46;;;;;;;8.02;2.85;;;;;;;4.80;91.09;100853.91;5022127;28;20156;-78
2021/05/07 06:33:12;;;;;;;9.52;2.97;;;;;;;4.84;90.50;100861.41;5020119;28;20042;-79
2021/05/07 06:35:38;;;;;;;7.60;2.75;;;;;;;4.84;90.74;100860.53;5004474;28;20042;-78
2021/05/07 06:38:08;;;;;;;4.55;2.85;;;;;;;4.87;90.34;100862.94;5013236;28;20475;-78
2021/05/07 06:40:34;;;;;;;6.68;2.95;;;;;;;4.87;89.42;100855.97;5013671;28;20144;-80
2021/05/07 06:43:00;;;;;;;10.75;2.55;;;;;;;4.85;90.20;100851.81;5027747;28;20041;-77
2021/05/07 06:45:25;;;;;;;6.43;2.72;;;;;;;4.95;89.87;100868.41;5034306;28;20045;-78
2021/05/07 06:47:51;;;;;;;11.52;3.55;;;;;;;5.05;88.86;100869.47;5006296;28;20124;-78
2021/05/07 06:50:18;;;;;;;7.82;2.80;;;;;;;5.16;89.90;100873.06;4998969;28;20041;-78
2021/05/07 06:52:44;;;;;;;7.13;2.72;;;;;;;5.28;88.87;100873.97;5034678;28;20053;-77
2021/05/07 06:55:11;;;;;;;6.85;2.72;;;;;;;5.35;88.77;100877.78;5036240;28;20048;-78
2021/05/07 06:57:37;;;;;;;5.07;2.10;;;;;;;5.47;87.81;100876.91;5035256;28;20076;-79
2021/05/07 07:00:08;;;;;;;7.57;2.75;;;;;;;5.44;87.47;100882.34;5033080;28;20041;-78
2021/05/07 07:02:34;;;;;;;7.85;3.03;;;;;;;5.41;88.60;100886.00;5027599;28;20086;-78
2021/05/07 07:05:00;;;;;;;5.22;3.08;;;;;;;5.42;88.88;100879.00;5021137;28;20045;-81
2021/05/07 07:07:26;;;;;;;5.32;3.55;;;;;;;5.61;88.53;100889.78;5032940;28;20049;-78
2021/05/07 07:09:52;;;;;;;6.85;3.17;;;;;;;5.88;87.17;100877.44;5008380;28;20051;-78
2021/05/07 07:12:18;;;;;;;9.45;3.55;;;;;;;6.00;87.44;100884.41;5021951;28;20046;-77
2021/05/07 07:14:44;;;;;;;4.78;3.05;;;;;;;5.95;86.43;100886.47;5012573;28;20049;-79
2021/05/07 07:17:09;;;;;;;7.22;3.58;;;;;;;5.99;86.22;100885.31;4996329;28;20065;-79
2021/05/07 07:19:35;;;;;;;6.82;3.25;;;;;;;5.94;85.12;100896.06;4992740;28;20061;-79
2021/05/07 07:22:04;;;;;;;7.93;3.35;;;;;;;5.84;85.30;100900.28;4978291;28;20512;-77
2021/05/07 07:24:29;;;;;;;8.40;3.20;;;;;;;5.76;84.95;100893.00;4994132;28;20113;-77
2021/05/07 07:26:55;;;;;;;7.63;3.25;;;;;;;5.80;86.92;100901.44;5013555;28;20068;-78
2021/05/07 07:29:21;;;;;;;5.05;3.20;;;;;;;5.89;87.10;100905.97;5022800;28;20037;-77
2021/05/07 07:31:47;;;;;;;7.05;3.60;;;;;;;5.85;85.77;100905.38;5025856;28;20061;-79
2021/05/07 07:34:12;;;;;;;6.55;3.50;;;;;;;5.93;84.84;100911.78;5031118;28;20077;-77
2021/05/07 07:36:38;;;;;;;7.70;3.92;;;;;;;5.96;83.27;100915.03;5020323;28;20041;-79
2021/05/07 07:39:04;;;;;;;8.25;3.92;;;;;;;5.89;85.79;100910.34;5027802;28;20053;-77
2021/05/07 07:41:30;;;;;;;5.65;4.05;;;;;;;5.87;86.47;100920.06;5015414;28;20528;-76
2021/05/07 07:43:55;;;;;;;6.32;4.05;;;;;;;5.81;84.71;100916.94;4982610;28;20053;-79
2021/05/07 07:46:21;;;;;;;6.53;3.97;;;;;;;5.88;85.52;100922.56;4996014;28;20057;-79
2021/05/07 07:48:47;;;;;;;6.32;3.40;;;;;;;5.97;83.92;100921.06;4996076;28;20046;-78
2021/05/07 07:51:12;;;;;;;5.10;3.03;;;;;;;6.19;85.05;100925.53;5013688;28;20049;-78
2021/05/07 07:53:37;;;;;;;8.98;3.42;;;;;;;6.73;83.53;100914.50;5022676;28;20042;-78
2021/05/07 07:56:03;;;;;;;7.10;3.05;;;;;;;7.10;81.56;100918.66;5030243;28;20050;-79
2021/05/07 07:58:29;;;;;;;6.20;3.22;;;;;;;7.44;78.28;100921.22;5026775;28;20041;-79
2021/05/07 08:00:55;;;;;;;7.90;2.58;;;;;;;7.40;76.27;100928.47;5025091;28;20057;-79
2021/05/07 08:03:21;;;;;;;5.32;2.83;;;;;;;7.29;75.53;100925.88;5012453;28;20069;-77
2021/05/07 08:05:47;;;;;;;5.80;2.80;;;;;;;7.30;79.27;100919.72;5015660;28;20486;-76
2021/05/07 08:08:12;;;;;;;5.22;3.40;;;;;;;7.83;80.88;100932.03;5005771;28;20128;-77
2021/05/07 08:10:38;;;;;;;8.75;2.90;;;;;;;8.23;76.19;100929.63;4993424;28;20045;-77
2021/05/07 08:13:03;;;;;;;4.53;2.47;;;;;;;8.43;76.72;100940.25;5025007;28;20044;-77
2021/05/07 08:15:29;;;;;;;6.22;2.35;;;;;;;8.10;75.78;100939.41;5009786;28;20038;-77
2021/05/07 08:17:55;;;;;;;5.43;2.50;;;;;;;7.86;76.29;100934.41;4990890;28;20424;-77
2021/05/07 08:20:21;;;;;;;5.68;2.33;;;;;;;7.80;76.17;100943.59;5008642;28;20054;-78
2021/05/07 08:22:47;;;;;;;4.03;2.05;;;;;;;8.02;75.87;100939.22;5006054;28;20069;-76
2021/05/07 08:25:13;;;;;;;6.15;2.00;;;;;;;8.42;73.72;100941.19;5011816;28;20071;-80
2021/05/07 08:27:43;;;;;;;4.75;2.00;;;;;;;8.58;73.85;100947.63;5030709;28;20585;-80
2021/05/07 08:30:12;;;;;;;6.40;1.70;;;;;;;8.57;72.21;100959.06;5011602;28;20096;-77
2021/05/07 08:32:37;;;;;;;5.05;1.30;;;;;;;7.80;73.14;100982.75;5013860;28;20460;-76
2021/05/07 08:35:03;;;;;;;2.03;0.70;;;;;;;6.70;80.58;100985.13;4994861;28;20104;-78
2021/05/07 08:37:29;;;;;;;3.72;0.80;;;;;;;6.01;83.44;100996.25;5023752;28;20527;-79
2021/05/07 08:39:55;;;;;;;4.90;0.98;;;;;;;5.36;86.14;101002.53;5019310;28;20088;-78
2021/05/07 08:42:21;;;;;;;3.75;0.90;;;;;;;5.13;88.37;101006.72;5002437;28;20044;-77
2021/05/07 08:44:48;;;;;;;2.45;1.13;;;;;;;5.06;88.08;101008.06;5012434;28;20053;-78
2021/05/07 08:47:21;;;;;;;6.88;1.55;;;;;;;5.25;88.53;101005.91;5027865;28;20049;-76
2021/05/07 08:49:48;;;;;;;3.00;1.60;;;;;;;5.19;90.42;101010.69;5026351;28;20413;-76
2021/05/07 08:52:15;;;;;;;2.50;1.50;;;;;;;5.37;91.08;101019.81;5026587;28;20141;-79
2021/05/07 08:54:41;;;;;;;4.03;1.77;;;;;;;5.56;89.55;101014.16;5008363;28;20053;-78
2021/05/07 08:57:06;;;;;;;2.78;2.13;;;;;;;5.99;90.66;101026.78;5000784;28;20049;-79
2021/05/07 08:59:33;;;;;;;2.58;1.30;;;;;;;6.36;87.30;101024.09;5010255;28;20511;-78
2021/05/07 09:03:48;;;;;;;4.40;1.55;;;;;;;6.46;85.00;101013.88;5047337;28;20401;-71
2021/05/07 09:06:21;;;;;;;2.38;1.20;;;;;;;6.12;85.92;101018.06;5044042;28;20048;-71
2021/05/07 09:08:50;;;;;;;2.30;1.10;;;;;;;5.95;87.60;101019.25;5042578;28;20060;-74
2021/05/07 09:11:17;;;;;;;2.35;1.00;;;;;;;6.23;88.59;101019.00;5041997;28;20044;-73
2021/05/07 09:13:43;;;;;;;3.47;1.20;;;;;;;6.60;89.93;101021.47;5026693;28;20526;-72
2021/05/07 09:16:10;;;;;;;4.40;1.33;;;;;;;7.14;87.14;101016.59;5038364;28;20056;-72
2021/05/07 09:18:47;;;;;;;3.25;1.00;;;;;;;7.48;84.42;101022.66;5062175;28;20084;-72
2021/05/07 09:21:14;;;;;;;3.95;1.02;;;;;;;7.57;81.03;101010.66;5061698;28;20103;-71
2021/05/07 09:23:51;;;;;;;4.07;1.15;;;;;;;7.88;83.14;101011.69;5060866;28;20048;-71
2021/05/07 09:26:17;;;;;;;2.05;1.20;;;;;;;8.18;84.18;101024.06;5061891;28;20041;-72
2021/05/07 09:28:55;;;;;;;8.80;1.15;;;;;;;8.31;79.69;101034.38;5058587;28;20048;-73
2021/05/07 09:31:23;;;;;;;2.17;1.38;;;;;;;8.34;81.33;101031.50;5061249;28;20532;-72
2021/05/07 09:33:49;;;;;;;3.35;1.42;;;;;;;8.71;80.70;101040.75;5063963;28;20058;-70
2021/05/07 09:36:26;;;;;;;8.40;1.10;;;;;;;8.95;74.03;101050.97;5063956;28;20036;-71
2021/05/07 09:38:52;;;;;;;1.90;0.75;;;;;;;9.28;75.96;101042.03;5058021;28;20140;-71
2021/05/07 09:41:18;;;;;;;4.10;0.85;;;;;;;9.39;70.91;101048.16;5060979;28;20143;-73
2021/05/07 09:43:44;;;;;;;3.08;0.77;;;;;;;9.43;72.20;101045.13;5036617;28;20049;-72
2021/05/07 09:46:09;;;;;;;2.15;0.88;;;;;;;9.50;70.26;101050.69;5043668;28;20090;-70
2021/05/07 09:48:40;;;;;;;1.55;0.60;;;;;;;9.43;71.01;101049.56;5061339;28;20056;-72
2021/05/07 09:51:06;;;;;;;4.93;1.02;;;;;;;9.78;74.46;101061.41;5060308;28;20081;-73
2021/05/07 09:53:37;;;;;;;1.77;0.80;;;;;;;10.09;72.60;101059.53;5067660;28;20501;-72
2021/05/07 09:56:11;;;;;;;2.70;0.90;;;;;;;10.30;68.08;101059.41;5063290;28;20134;-72
2021/05/07 09:58:37;;;;;;;1.75;0.70;;;;;;;10.34;67.00;101055.59;5069221;28;20044;-74
2021/05/07 10:01:03;;;;;;;2.17;0.90;;;;;;;10.29;66.87;101060.41;5077025;28;20047;-72
2021/05/07 10:03:29;;;;;;;4.60;0.88;;;;;;;9.97;67.20;101061.44;5053199;28;20036;-73
2021/05/07 10:05:54;;;;;;;1.50;0.80;;;;;;;9.15;68.09;101078.06;5069155;28;20049;-72
2021/05/07 10:08:20;;;;;;;3.85;0.90;;;;;;;8.56;70.68;101076.84;5065815;28;20059;-73
2021/05/07 10:10:48;;;;;;;2.22;0.70;;;;;;;8.03;73.04;101076.72;5075100;28;20045;-73
2021/05/07 10:13:16;;;;;;;4.93;1.10;;;;;;;7.91;74.81;101096.78;5059710;28;20051;-74
2021/05/07 10:15:43;;;;;;;2.30;0.80;;;;;;;8.01;73.47;101099.53;5048228;28;20417;-73
2021/05/07 10:18:11;;;;;;;4.55;1.10;;;;;;;7.97;72.75;101097.16;5024907;28;20240;-72
2021/05/07 10:20:41;;;;;;;1.65;0.95;;;;;;;7.93;72.81;101100.13;5047955;28;20041;-72
2021/05/07 10:23:34;;;;;;;1.92;0.73;;;;;;;7.85;74.82;101098.09;5045806;28;20052;-72
2021/05/07 10:26:02;;;;;;;2.30;0.70;;;;;;;8.07;75.18;101099.03;5040518;28;20051;-73
2021/05/07 10:28:42;;;;;;;3.92;1.00;;;;;;;8.11;77.81;101106.50;5041492;28;20658;-73
2021/05/07 10:31:09;;;;;;;4.25;1.15;;;;;;;9.02;76.92;101106.22;5061513;28;20167;-73
2021/05/07 10:33:35;;;;;;;1.67;0.80;;;;;;;9.22;70.91;101108.00;5035785;28;20045;-72
2021/05/07 10:36:01;;;;;;;1.88;0.70;;;;;;;8.99;71.02;101109.94;5044787;28;20048;-73
2021/05/07 10:38:27;;;;;;;2.45;0.63;;;;;;;8.76;70.75;101107.41;5040695;28;20041;-72
2021/05/07 10:41:10;;;;;;;2.05;0.65;;;;;;;8.81;72.80;101120.09;5045811;28;20374;-75
2021/05/07 10:43:45;;;;;;;1.40;0.80;;;;;;;8.80;72.40;101115.00;5051852;28;20053;-74
2021/05/07 10:46:24;;;;;;;2.08;0.80;;;;;;;9.33;70.57;101117.56;5046988;28;20084;-73
2021/05/07 10:48:55;;;;;;;1.38;0.80;;;;;;;9.85;69.16;101118.38;5043368;28;20041;-74
2021/05/07 10:51:25;;;;;;;1.38;0.75;;;;;;;9.89;67.55;101116.31;5032631;28;20553;-73
2021/05/07 10:53:52;;;;;;;4.93;0.98;;;;;;;10.13;67.93;101115.94;5042221;28;20076;-73
2021/05/07 10:56:25;;;;;;;1.30;0.90;;;;;;;10.56;68.54;101114.00;5039221;28;20037;-73
2021/05/07 10:58:52;;;;;;;1.85;0.90;;;;;;;11.15;67.01;101123.50;5049414;28;20056;-73
2021/05/07 11:01:22;;;;;;;3.45;0.93;;;;;;;11.39;63.62;101120.38;5047792;28;20045;-73
2021/05/07 11:04:04;;;;;;;5.93;0.90;;;;;;;10.94;64.65;101126.25;5047944;28;20199;-74
2021/05/07 11:06:32;;;;;;;2.10;1.17;;;;;;;10.47;64.59;101131.38;5022104;28;20522;-72
2021/05/07 11:08:58;;;;;;;5.25;1.10;;;;;;;10.56;64.23;101127.09;5047595;28;20540;-75
2021/05/07 11:11:23;;;;;;;5.63;1.17;;;;;;;10.38;64.29;101127.78;5063975;28;20072;-73
2021/05/07 11:13:49;;;;;;;4.65;1.02;;;;;;;9.91;67.15;101140.59;5047389;28;20128;-73
2021/05/07 11:16:14;;;;;;;3.30;0.95;;;;;;;9.54;68.25;101144.56;5030764;28;20073;-73
2021/05/07 11:18:46;;;;;;;2.05;1.00;;;;;;;9.27;68.19;101137.25;5046109;28;20151;-73
2021/05/07 11:21:13;;;;;;;2.38;1.02;;;;;;;9.15;69.01;101144.34;5046601;28;20045;-73
2021/05/07 11:23:39;;;;;;;4.60;1.23;;;;;;;9.48;66.75;101142.47;5045107;28;20055;-73
2021/05/07 11:26:06;;;;;;;3.20;0.90;;;;;;;10.02;63.13;101142.28;5035899;28;20164;-73
2021/05/07 11:28:43;;;;;;;3.78;1.00;;;;;;;10.11;59.98;101142.31;5045692;28;20033;-74
2021/05/07 11:31:09;;;;;;;2.45;0.93;;;;;;;10.44;64.08;101136.91;5029174;28;20077;-73
2021/05/07 11:33:35;;;;;;;3.95;1.10;;;;;;;10.90;61.52;101141.47;5044540;28;20063;-74